createdAt,value
2023-02-21T00:01:35.079Z,7.58
2023-02-21T00:04:19.801Z,7.51
2023-02-21T00:07:04.690Z,7.44
2023-02-21T00:09:49.251Z,7.47
2023-02-21T00:12:34.066Z,7.48
2023-02-21T00:15:18.917Z,7.46
2023-02-21T00:18:03.668Z,7.39
2023-02-21T00:20:48.428Z,7.42
2023-02-21T00:23:33.347Z,7.45
2023-02-21T00:26:17.924Z,7.49
2023-02-21T00:29:02.785Z,7.45
2023-02-21T00:31:47.748Z,7.39
2023-02-21T00:34:32.290Z,7.42
2023-02-21T00:37:17.232Z,7.43
2023-02-21T00:40:02.038Z,7.39
2023-02-21T00:42:46.907Z,7.40
2023-02-21T00:45:31.475Z,7.43
2023-02-21T00:48:16.559Z,7.46
2023-02-21T00:51:01.261Z,7.47
2023-02-21T00:53:45.739Z,7.49
2023-02-21T00:56:30.568Z,7.51
2023-02-21T00:59:15.027Z,7.50
2023-02-21T01:02:00.139Z,7.52
2023-02-21T01:04:44.853Z,7.53
2023-02-21T01:07:31.788Z,7.53
2023-02-21T01:10:16.475Z,7.53
2023-02-21T01:13:01.084Z,7.54
2023-02-21T01:15:45.436Z,7.51
2023-02-21T01:18:31.148Z,7.39
2023-02-21T01:21:16.063Z,7.36
2023-02-21T01:24:00.852Z,7.35
2023-02-21T01:26:45.932Z,7.36
2023-02-21T01:29:30.420Z,7.38
2023-02-21T01:32:14.755Z,7.36
2023-02-21T01:34:59.517Z,7.33
2023-02-21T01:37:43.813Z,7.32
2023-02-21T01:40:33.827Z,7.29
2023-02-21T01:43:20.167Z,7.25
2023-02-21T01:46:07.560Z,7.22
2023-02-21T01:48:53.932Z,7.11
2023-02-21T01:51:44.982Z,7.15
2023-02-21T01:54:29.894Z,7.18
2023-02-21T01:57:17.269Z,7.16
2023-02-21T02:00:02.591Z,7.16
2023-02-21T02:03:15.833Z,7.17
2023-02-21T02:06:04.177Z,7.15
2023-02-21T02:08:51.458Z,7.04
2023-02-21T02:12:04.993Z,7.05
2023-02-21T02:14:39.762Z,7.10
2023-02-21T02:17:24.438Z,7.10
2023-02-21T02:20:23.812Z,7.14
2023-02-21T02:23:11.322Z,7.12
2023-02-21T02:26:10.657Z,7.11
2023-02-21T02:28:45.682Z,7.12
2023-02-21T02:31:30.537Z,7.15
2023-02-21T02:34:17.325Z,7.18
2023-02-21T02:36:52.942Z,7.21
2023-02-21T02:39:31.420Z,7.24
2023-02-21T02:42:14.061Z,7.22
2023-02-21T02:44:44.541Z,7.24
2023-02-21T02:47:22.903Z,7.25
2023-02-21T02:49:51.708Z,7.21
2023-02-21T02:52:17.896Z,7.20
2023-02-21T02:54:43.991Z,7.23
2023-02-21T02:57:12.515Z,7.24
2023-02-21T02:59:43.505Z,7.21
2023-02-21T03:02:36.415Z,7.15
2023-02-21T03:05:05.359Z,7.13
2023-02-21T03:07:43.416Z,7.08
2023-02-21T03:10:18.238Z,7.06
2023-02-21T03:12:54.962Z,7.01
2023-02-21T03:15:26.439Z,6.96
2023-02-21T03:18:18.352Z,6.89
2023-02-21T03:20:48.472Z,6.89
2023-02-21T03:23:17.717Z,6.82
2023-02-21T03:25:46.325Z,6.84
2023-02-21T03:28:13.360Z,6.87
2023-02-21T03:30:44.209Z,6.87
2023-02-21T03:33:10.937Z,6.90
2023-02-21T03:35:37.629Z,6.90
2023-02-21T03:38:04.420Z,6.91
2023-02-21T03:40:33.141Z,6.94
2023-02-21T03:43:01.934Z,6.94
2023-02-21T03:45:31.670Z,6.95
2023-02-21T03:48:30.995Z,6.95
2023-02-21T03:50:59.988Z,7.00
2023-02-21T03:53:28.951Z,7.03
2023-02-21T03:55:55.320Z,7.05
2023-02-21T03:58:25.957Z,7.06
2023-02-21T04:00:53.292Z,7.04
2023-02-21T04:03:23.224Z,7.05
2023-02-21T04:05:55.197Z,7.07
2023-02-21T04:08:21.393Z,7.03
2023-02-21T04:10:52.479Z,7.01
2023-02-21T04:13:23.082Z,7.03
2023-02-21T04:15:49.737Z,7.04
2023-02-21T04:18:16.708Z,7.03
2023-02-21T04:20:46.196Z,6.99
2023-02-21T04:23:19.397Z,6.98
2023-02-21T04:25:45.738Z,6.97
2023-02-21T04:28:15.921Z,6.98
2023-02-21T04:30:42.060Z,6.95
2023-02-21T04:33:08.363Z,6.95
2023-02-21T04:35:34.672Z,6.94
2023-02-21T04:38:06.354Z,6.90
2023-02-21T04:40:32.411Z,6.82
2023-02-21T04:42:58.497Z,6.79
2023-02-21T04:45:25.096Z,6.79
2023-02-21T04:47:51.238Z,6.74
2023-02-21T04:50:17.588Z,6.68
2023-02-21T04:52:43.825Z,6.64
2023-02-21T04:55:09.941Z,6.63
2023-02-21T04:57:36.232Z,6.58
2023-02-21T05:00:06.680Z,6.47
2023-02-21T05:02:33.050Z,6.41
2023-02-21T05:04:59.426Z,6.35
2023-02-21T05:07:25.539Z,6.33
2023-02-21T05:09:51.757Z,6.23
2023-02-21T05:12:17.838Z,6.24
2023-02-21T05:14:43.925Z,6.25
2023-02-21T05:17:10.232Z,6.29
2023-02-21T05:19:36.414Z,6.35
2023-02-21T05:22:02.922Z,6.39
2023-02-21T05:24:30.372Z,6.42
2023-02-21T05:26:57.257Z,6.46
2023-02-21T05:29:24.005Z,6.50
2023-02-21T05:31:50.221Z,6.52
2023-02-21T05:34:18.999Z,6.55
2023-02-21T05:36:45.655Z,6.50
2023-02-21T05:39:11.747Z,6.52
2023-02-21T05:41:38.059Z,6.78
2023-02-21T05:44:04.734Z,7.24
2023-02-21T05:46:34.057Z,7.73
2023-02-21T05:49:03.603Z,8.02
2023-02-21T05:51:38.457Z,8.32
2023-02-21T05:54:06.927Z,8.87
2023-02-21T05:56:40.644Z,9.33
2023-02-21T05:59:06.910Z,9.64
2023-02-21T06:01:33.005Z,9.89
2023-02-21T06:03:59.243Z,10.21
2023-02-21T06:06:25.545Z,10.81
2023-02-21T06:08:51.650Z,11.52
2023-02-21T06:11:27.526Z,12.37
2023-02-21T06:13:56.133Z,13.36
2023-02-21T06:16:23.167Z,14.50
2023-02-21T06:18:53.431Z,15.64
2023-02-21T06:21:19.631Z,16.71
2023-02-21T06:23:46.173Z,17.53
2023-02-21T06:26:13.545Z,18.28
2023-02-21T06:28:39.690Z,18.95
2023-02-21T06:31:06.076Z,19.51
2023-02-21T06:33:32.642Z,20.01
2023-02-21T06:36:02.351Z,20.48
2023-02-21T06:38:28.478Z,21.00
2023-02-21T06:40:54.577Z,21.59
2023-02-21T06:43:20.742Z,22.23
2023-02-21T06:45:46.997Z,22.83
2023-02-21T06:48:16.555Z,23.43
2023-02-21T06:50:42.912Z,24.01
2023-02-21T06:53:09.091Z,24.68
2023-02-21T06:55:35.278Z,25.10
2023-02-21T06:58:01.432Z,25.16
2023-02-21T07:00:27.526Z,25.25
2023-02-21T07:02:53.657Z,25.38
2023-02-21T07:05:19.955Z,25.98
2023-02-21T07:07:46.184Z,26.89
2023-02-21T07:10:12.681Z,27.61
2023-02-21T07:12:39.534Z,27.77
2023-02-21T07:15:06.762Z,28.05
2023-02-21T07:17:32.962Z,28.23
2023-02-21T07:19:59.116Z,28.36
2023-02-21T07:22:28.244Z,28.10
2023-02-21T07:24:55.162Z,27.57
2023-02-21T07:27:21.835Z,26.98
2023-02-21T07:29:48.895Z,26.58
2023-02-21T07:32:18.200Z,26.15
2023-02-21T07:34:45.467Z,26.24
2023-02-21T07:37:12.791Z,26.39
2023-02-21T07:39:39.199Z,26.58
2023-02-21T07:42:07.288Z,26.69
2023-02-21T07:44:33.955Z,26.80
2023-02-21T07:47:00.108Z,26.68
2023-02-21T07:49:29.993Z,26.70
2023-02-21T07:51:57.228Z,26.58
2023-02-21T07:54:23.349Z,26.34
2023-02-21T07:56:49.545Z,26.02
2023-02-21T07:59:15.780Z,25.62
2023-02-21T08:01:42.042Z,25.10
2023-02-21T08:04:08.300Z,24.38
2023-02-21T08:06:35.112Z,23.75
2023-02-21T08:09:01.230Z,23.04
2023-02-21T08:11:27.463Z,22.31
2023-02-21T08:13:54.015Z,21.65
2023-02-21T08:16:20.171Z,21.10
2023-02-21T08:18:50.248Z,20.62
2023-02-21T08:21:19.529Z,20.16
2023-02-21T08:23:45.604Z,19.76
2023-02-21T08:26:11.708Z,19.33
2023-02-21T08:28:37.963Z,18.48
2023-02-21T08:31:04.554Z,18.10
2023-02-21T08:33:31.656Z,17.93
2023-02-21T08:35:57.994Z,17.59
2023-02-21T08:38:24.095Z,17.12
2023-02-21T08:40:50.926Z,16.81
2023-02-21T08:43:17.148Z,16.66
2023-02-21T08:45:43.223Z,16.66
2023-02-21T08:48:09.419Z,16.81
2023-02-21T08:50:35.552Z,17.03
2023-02-21T08:53:01.717Z,17.22
2023-02-21T08:55:27.851Z,17.15
2023-02-21T08:57:54.172Z,16.99
2023-02-21T09:00:23.606Z,17.05
2023-02-21T09:02:52.387Z,16.97
2023-02-21T09:05:24.028Z,16.84
2023-02-21T09:07:54.412Z,16.76
2023-02-21T09:10:21.319Z,16.54
2023-02-21T09:12:47.490Z,16.62
2023-02-21T09:15:15.307Z,16.63
2023-02-21T09:17:41.486Z,16.52
2023-02-21T09:20:10.106Z,16.96
2023-02-21T09:22:36.358Z,17.29
2023-02-21T09:25:03.352Z,17.52
2023-02-21T09:27:38.190Z,17.71
2023-02-21T09:30:07.668Z,18.15
2023-02-21T09:32:34.573Z,18.55
2023-02-21T09:35:00.913Z,18.91
2023-02-21T09:37:27.022Z,19.21
2023-02-21T09:39:53.410Z,19.25
2023-02-21T09:42:24.045Z,19.27
2023-02-21T09:44:51.016Z,19.37
2023-02-21T09:47:31.233Z,19.42
2023-02-21T09:50:06.521Z,19.53
2023-02-21T09:52:38.562Z,19.67
2023-02-21T09:55:12.609Z,19.79
2023-02-21T09:57:38.821Z,19.95
2023-02-21T10:00:46.510Z,20.20
2023-02-21T10:03:18.723Z,20.40
2023-02-21T10:05:57.425Z,20.51
2023-02-21T10:08:36.581Z,20.56
2023-02-21T10:11:41.013Z,20.60
2023-02-21T10:14:13.537Z,20.60
2023-02-21T10:16:50.864Z,20.62
2023-02-21T10:22:45.888Z,20.72
2023-02-21T10:25:24.275Z,20.81
2023-02-21T10:27:52.955Z,20.96
2023-02-21T10:30:40.272Z,21.19
2023-02-21T10:33:07.624Z,21.40
2023-02-21T10:35:37.510Z,21.48
2023-02-21T10:38:11.713Z,21.61
2023-02-21T10:40:37.876Z,21.74
2023-02-21T10:43:14.425Z,21.83
2023-02-21T10:45:47.203Z,21.94
2023-02-21T10:48:14.868Z,22.03
2023-02-21T10:51:05.393Z,22.07
2023-02-21T10:53:37.477Z,21.99
2023-02-21T10:56:16.073Z,21.97
2023-02-21T10:58:56.235Z,21.91
2023-02-21T11:01:25.481Z,21.87
2023-02-21T11:03:59.542Z,21.83
2023-02-21T11:06:38.060Z,21.83
2023-02-21T11:09:31.199Z,21.81
2023-02-21T11:12:15.423Z,21.74
2023-02-21T11:14:43.338Z,21.67
2023-02-21T11:17:16.562Z,21.62
2023-02-21T11:19:46.996Z,21.60
2023-02-21T11:22:14.831Z,21.64
2023-02-21T11:25:02.417Z,21.65
2023-02-21T11:27:31.293Z,21.60
2023-02-21T11:29:58.363Z,21.58
2023-02-21T11:32:26.976Z,21.52
2023-02-21T11:35:20.443Z,21.47
2023-02-21T11:37:56.067Z,21.42
2023-02-21T11:40:28.908Z,21.36
2023-02-21T11:43:30.352Z,21.31
2023-02-21T11:46:40.131Z,21.21
2023-02-21T11:49:36.769Z,21.11
2023-02-21T11:52:09.409Z,21.04
2023-02-21T11:54:35.567Z,20.99
2023-02-21T11:57:08.628Z,20.94
2023-02-21T11:59:52.307Z,20.87
2023-02-21T12:02:55.769Z,20.80
2023-02-21T12:06:00.211Z,20.73
2023-02-21T12:08:30.668Z,20.68
2023-02-21T12:11:05.855Z,20.65
2023-02-21T12:13:49.185Z,20.62
2023-02-21T12:16:19.757Z,20.58
2023-02-21T12:18:51.835Z,20.50
2023-02-21T12:21:36.358Z,20.44
2023-02-21T12:24:34.984Z,20.39
2023-02-21T12:27:41.524Z,20.33
2023-02-21T12:30:26.330Z,20.27
2023-02-21T12:33:07.319Z,20.22
2023-02-21T12:35:37.114Z,20.15
2023-02-21T12:38:06.615Z,20.11
2023-02-21T12:40:44.763Z,20.06
2023-02-21T12:43:38.603Z,20.05
2023-02-21T12:46:19.182Z,20.04
2023-02-21T12:49:16.713Z,20.03
2023-02-21T12:51:52.548Z,20.01
2023-02-21T12:54:25.982Z,19.97
2023-02-21T12:57:03.349Z,19.90
2023-02-21T12:59:36.543Z,19.85
2023-02-21T13:02:15.320Z,19.82
2023-02-21T13:05:02.272Z,19.80
2023-02-21T13:07:44.774Z,19.76
2023-02-21T13:10:19.315Z,19.71
2023-02-21T13:13:04.154Z,19.67
2023-02-21T13:15:30.744Z,19.64
2023-02-21T13:18:08.061Z,19.63
2023-02-21T13:20:39.595Z,19.61
2023-02-21T13:24:01.098Z,19.56
2023-02-21T13:26:53.005Z,19.50
2023-02-21T13:29:30.360Z,19.48
2023-02-21T13:32:07.143Z,19.47
2023-02-21T13:34:45.236Z,19.43
2023-02-21T13:37:20.669Z,19.37
2023-02-21T13:40:00.744Z,19.34
2023-02-21T13:42:29.467Z,19.33
2023-02-21T13:45:22.916Z,19.30
2023-02-21T13:47:59.323Z,19.27
2023-02-21T13:50:38.425Z,19.24
2023-02-21T13:53:12.573Z,19.18
2023-02-21T13:55:39.957Z,19.16
2023-02-21T13:58:06.765Z,19.15
2023-02-21T14:00:32.888Z,19.15
2023-02-21T14:03:05.718Z,19.11
2023-02-21T14:05:43.948Z,19.07
2023-02-21T14:08:29.170Z,19.03
2023-02-21T14:11:00.266Z,18.97
2023-02-21T14:13:40.185Z,18.96
2023-02-21T14:16:18.371Z,18.93
2023-02-21T14:19:07.032Z,18.92
2023-02-21T14:21:38.927Z,18.89
2023-02-21T14:24:20.302Z,18.85
2023-02-21T14:27:00.710Z,18.79
2023-02-21T14:29:31.177Z,18.76
2023-02-21T14:32:03.441Z,18.73
2023-02-21T14:34:37.416Z,18.71
2023-02-21T14:37:19.384Z,18.69
2023-02-21T14:39:52.569Z,18.67
2023-02-21T14:42:33.811Z,18.65
2023-02-21T14:45:11.719Z,18.64
2023-02-21T14:48:15.348Z,18.61
2023-02-21T14:51:06.278Z,18.56
2023-02-21T14:53:53.096Z,18.49
2023-02-21T14:56:58.178Z,18.46
2023-02-21T14:59:40.030Z,18.43
2023-02-21T15:02:25.101Z,18.41
2023-02-21T15:04:57.496Z,18.39
2023-02-21T15:07:41.550Z,18.35
2023-02-21T15:10:22.802Z,18.31
2023-02-21T15:12:55.921Z,18.28
2023-02-21T15:15:31.231Z,18.24
2023-02-21T15:18:02.510Z,18.20
2023-02-21T15:20:33.412Z,18.14
2023-02-21T15:23:28.870Z,18.10
2023-02-21T15:25:57.586Z,18.06
2023-02-21T15:28:32.206Z,18.02
2023-02-21T15:31:09.905Z,17.97
2023-02-21T15:33:38.649Z,17.91
2023-02-21T15:36:08.621Z,17.85
2023-02-21T15:38:49.605Z,17.79
2023-02-21T15:41:33.856Z,17.74
2023-02-21T15:44:05.220Z,17.69
2023-02-21T15:46:42.283Z,17.63
2023-02-21T15:49:18.469Z,17.58
2023-02-21T15:51:44.746Z,17.54
2023-02-21T15:54:37.756Z,17.48
2023-02-21T15:57:04.101Z,17.44
2023-02-21T15:59:31.427Z,17.39
2023-02-21T16:02:14.034Z,17.33
2023-02-21T16:04:49.263Z,17.28
2023-02-21T16:07:24.155Z,17.23
2023-02-21T16:09:58.815Z,17.20
2023-02-21T16:12:32.739Z,17.14
2023-02-21T16:15:13.788Z,17.08
2023-02-21T16:17:41.614Z,17.01
2023-02-21T16:20:21.195Z,16.98
2023-02-21T16:23:08.007Z,16.92
2023-02-21T16:25:34.764Z,16.86
2023-02-21T16:28:01.793Z,16.81
2023-02-21T16:30:31.706Z,16.77
2023-02-21T16:33:03.786Z,16.71
2023-02-21T16:35:30.859Z,16.66
2023-02-21T16:37:58.456Z,16.59
2023-02-21T16:40:28.292Z,16.55
2023-02-21T16:42:55.941Z,16.50
2023-02-21T16:45:22.903Z,16.44
2023-02-21T16:47:54.656Z,16.39
2023-02-21T16:50:29.248Z,16.33
2023-02-21T16:52:55.625Z,16.29
2023-02-21T16:55:21.819Z,16.25
2023-02-21T16:57:49.616Z,16.22
2023-02-21T17:00:21.531Z,16.16
2023-02-21T17:02:48.919Z,16.10
2023-02-21T17:05:16.057Z,16.04
2023-02-21T17:07:42.487Z,16.01
2023-02-21T17:10:10.404Z,15.97
2023-02-21T17:12:36.540Z,15.91
2023-02-21T17:15:03.647Z,15.86
2023-02-21T17:17:29.780Z,15.81
2023-02-21T17:19:56.205Z,15.77
2023-02-21T17:22:23.432Z,15.73
2023-02-21T17:24:49.866Z,15.67
2023-02-21T17:27:16.001Z,15.61
2023-02-21T17:29:42.076Z,15.56
2023-02-21T17:32:08.376Z,15.51
2023-02-21T17:34:36.279Z,15.47
2023-02-21T17:37:03.400Z,15.42
2023-02-21T17:39:29.717Z,15.36
2023-02-21T17:41:56.455Z,15.30
2023-02-21T17:44:23.849Z,15.21
2023-02-21T17:46:53.357Z,15.08
2023-02-21T17:49:22.277Z,14.96
2023-02-21T17:51:49.023Z,14.86
2023-02-21T17:54:21.647Z,14.79
2023-02-21T17:56:48.310Z,14.71
2023-02-21T17:59:17.275Z,14.64
2023-02-21T18:02:04.370Z,14.58
2023-02-21T18:04:30.870Z,14.51
2023-02-21T18:06:57.741Z,14.49
2023-02-21T18:09:24.154Z,14.46
2023-02-21T18:11:52.165Z,14.44
2023-02-21T18:14:19.730Z,14.43
2023-02-21T18:16:46.026Z,14.41
2023-02-21T18:19:12.576Z,14.38
2023-02-21T18:21:40.711Z,14.38
2023-02-21T18:24:08.888Z,14.37
2023-02-21T18:26:35.570Z,14.35
2023-02-21T18:29:02.063Z,14.33
2023-02-21T18:31:28.362Z,14.29
2023-02-21T18:33:54.552Z,14.27
2023-02-21T18:36:20.861Z,14.22
2023-02-21T18:38:48.986Z,14.18
2023-02-21T18:41:19.819Z,14.14
2023-02-21T18:43:46.189Z,14.10
2023-02-21T18:46:14.763Z,14.07
2023-02-21T18:48:43.290Z,14.04
2023-02-21T18:51:11.379Z,13.99
2023-02-21T18:53:38.515Z,13.93
2023-02-21T18:56:11.394Z,13.87
2023-02-21T18:58:38.503Z,13.81
2023-02-21T19:01:06.380Z,13.76
2023-02-21T19:03:33.052Z,13.71
2023-02-21T19:06:00.055Z,13.66
2023-02-21T19:08:26.550Z,13.55
2023-02-21T19:10:53.288Z,13.41
2023-02-21T19:13:19.880Z,13.24
2023-02-21T19:15:46.177Z,13.08
2023-02-21T19:18:12.715Z,13.03
2023-02-21T19:20:43.269Z,13.01
2023-02-21T19:23:09.811Z,13.00
2023-02-21T19:25:36.124Z,12.99
2023-02-21T19:28:02.720Z,12.98
2023-02-21T19:30:33.890Z,12.98
2023-02-21T19:33:01.297Z,12.97
2023-02-21T19:35:29.101Z,12.97
2023-02-21T19:37:58.738Z,12.98
2023-02-21T19:40:25.255Z,12.98
2023-02-21T19:42:51.602Z,12.97
2023-02-21T19:45:18.820Z,12.96
2023-02-21T19:47:45.810Z,12.95
2023-02-21T19:50:12.871Z,12.93
2023-02-21T19:52:39.784Z,12.93
2023-02-21T19:55:10.321Z,12.93
2023-02-21T19:57:36.902Z,12.94
2023-02-21T20:00:06.257Z,12.94
2023-02-21T20:02:32.548Z,12.95
2023-02-21T20:04:59.007Z,12.95
2023-02-21T20:07:25.600Z,12.95
2023-02-21T20:09:52.101Z,12.94
2023-02-21T20:12:22.192Z,12.95
2023-02-21T20:14:49.945Z,12.97
2023-02-21T20:17:17.482Z,12.97
2023-02-21T20:19:47.230Z,12.95
2023-02-21T20:22:13.474Z,12.91
2023-02-21T20:24:45.501Z,12.86
2023-02-21T20:27:13.656Z,12.81
2023-02-21T20:29:40.227Z,12.78
2023-02-21T20:32:07.235Z,12.75
2023-02-21T20:34:34.172Z,12.72
2023-02-21T20:37:00.351Z,12.67
2023-02-21T20:39:33.852Z,12.58
2023-02-21T20:42:05.908Z,12.45
2023-02-21T20:44:34.838Z,12.37
2023-02-21T20:47:01.842Z,12.30
2023-02-21T20:49:28.282Z,12.20
2023-02-21T20:51:56.440Z,12.19
2023-02-21T20:54:22.780Z,12.17
2023-02-21T20:56:56.169Z,12.14
2023-02-21T20:59:27.795Z,12.03
2023-02-21T21:01:54.974Z,11.95
2023-02-21T21:04:26.115Z,11.90
2023-02-21T21:06:55.384Z,11.86
2023-02-21T21:09:31.412Z,11.82
2023-02-21T21:12:00.280Z,11.73
2023-02-21T21:14:28.477Z,11.67
2023-02-21T21:16:56.305Z,11.60
2023-02-21T21:19:26.010Z,11.57
2023-02-21T21:21:53.381Z,11.56
2023-02-21T21:24:20.239Z,11.54
2023-02-21T21:26:52.549Z,11.48
2023-02-21T21:29:23.435Z,11.44
2023-02-21T21:31:51.750Z,11.40
2023-02-21T21:34:25.260Z,11.34
2023-02-21T21:37:02.056Z,11.32
2023-02-21T21:39:28.275Z,11.36
2023-02-21T21:42:04.690Z,11.39
2023-02-21T21:44:32.185Z,11.41
2023-02-21T21:47:00.386Z,11.42
2023-02-21T21:49:31.899Z,11.43
2023-02-21T21:51:59.303Z,11.45
2023-02-21T21:54:26.585Z,11.46
2023-02-21T21:56:54.607Z,11.43
2023-02-21T21:59:26.342Z,11.41
2023-02-21T22:01:53.468Z,11.35
2023-02-21T22:04:20.394Z,11.31
2023-02-21T22:06:46.846Z,11.29
2023-02-21T22:09:17.016Z,11.24
2023-02-21T22:11:45.136Z,11.22
2023-02-21T22:14:12.231Z,11.20
2023-02-21T22:16:41.375Z,11.19
2023-02-21T22:19:08.644Z,11.18
2023-02-21T22:21:35.691Z,11.19
2023-02-21T22:24:08.029Z,11.21
2023-02-21T22:26:34.049Z,11.23
2023-02-21T22:29:05.331Z,11.24
2023-02-21T22:31:34.770Z,11.28
2023-02-21T22:34:01.516Z,11.30
2023-02-21T22:36:32.239Z,11.34
2023-02-21T22:39:07.714Z,11.40
2023-02-21T22:41:34.131Z,11.46
2023-02-21T22:44:00.488Z,11.54
2023-02-21T22:46:28.566Z,11.61
2023-02-21T22:48:55.401Z,11.60
2023-02-21T22:51:27.334Z,11.51
2023-02-21T22:53:53.997Z,11.42
2023-02-21T22:56:24.013Z,11.27
2023-02-21T22:58:51.610Z,11.19
2023-02-21T23:01:20.318Z,11.07
2023-02-21T23:03:47.374Z,10.90
2023-02-21T23:06:14.166Z,10.83
2023-02-21T23:08:45.933Z,10.71
2023-02-21T23:11:20.680Z,10.63
2023-02-21T23:13:46.921Z,10.59
2023-02-21T23:16:21.311Z,10.54
2023-02-21T23:18:47.658Z,10.49
2023-02-21T23:21:14.039Z,10.46
2023-02-21T23:23:41.012Z,10.48
2023-02-21T23:26:08.138Z,10.41
2023-02-21T23:28:34.691Z,10.36
2023-02-21T23:31:00.884Z,10.36
2023-02-21T23:33:30.423Z,10.34
2023-02-21T23:35:57.323Z,10.25
2023-02-21T23:38:27.228Z,10.20
2023-02-21T23:40:56.438Z,10.09
2023-02-21T23:43:25.198Z,10.01
2023-02-21T23:45:52.314Z,10.03
2023-02-21T23:48:18.631Z,10.06
2023-02-21T23:50:46.399Z,10.06
2023-02-21T23:53:16.178Z,10.04
2023-02-21T23:55:42.968Z,10.01
2023-02-21T23:58:12.551Z,10.03
